GMMD

Beni Mellal Airport

Morocco
METAR GMMD 161900Z 08004KT 9999 SCT023 SCT100 13/13 Q1020 NOSIG
Observed Flight Rules
Dec-16 @ 19:00 UTC (5 hours ago) Visual Flight Rules
Wind Visibility Clouds
80° at 4 knots 10,000+ meters
  • Scattered at 2,300' AGL
  • Scattered at 10,000' AGL
Temperatures Readings
Current 13°C / 55°F
Dewpoint 13°C / 55°F
Humidity 100%
Altimeter 30.12" Hg
Pressure 1020 hPa
Elevation 509
METAR GMMD 161900Z 08004KT 9999 SCT023 SCT100 13/13 Q1020 NOSIG
Observed Flight Rules
Dec-16 @ 19:00 UTC
(5 hours ago)
VFR
Wind Visibility
80° at 4 knots 10,000+ meters
Clouds
  • Scattered at 2,300' AGL
  • Scattered at 10,000' AGL
Temperature Dewpoint
13°C / 55°F 13°C / 55°F
Humidity Altimeter Pressure
100% 30.12" Hg 1020 hPa